Time;durP1;ratioP1;P1;durP2;ratioP2;P2;SDS_P1;SDS_P2;PMS_P1;PMS_P2;Temp;Humidity;BMP_temperature;BMP_pressure;BME280_temperature;BME280_humidity;BME280_pressure;Samples;Min_cycle;Max_cycle;Signal;HPM_P1;HPM_P2
2022/07/12 00:02:25;;;;;;;5.10;4.60;;;15.30;99.90;;;;;;4974831;28;20242;-36
2022/07/12 00:04:51;;;;;;;5.70;4.40;;;15.20;99.90;;;;;;4959290;28;20211;-36
2022/07/12 00:07:17;;;;;;;5.20;4.77;;;15.10;99.90;;;;;;4959358;28;20273;-37
2022/07/12 00:09:43;;;;;;;5.57;4.80;;;15.00;99.90;;;;;;4983361;28;20204;-36
2022/07/12 00:12:09;;;;;;;4.53;4.13;;;14.90;99.90;;;;;;4989422;28;20212;-36
2022/07/12 00:14:35;;;;;;;5.43;4.03;;;14.70;99.90;;;;;;4960326;28;20222;-36
2022/07/12 00:17:04;;;;;;;7.30;5.13;;;14.70;99.90;;;;;;4975600;28;20199;-37
2022/07/12 00:19:29;;;;;;;5.00;4.27;;;14.80;99.90;;;;;;4975615;28;20187;-35
2022/07/12 00:21:55;;;;;;;5.70;4.23;;;14.90;99.90;;;;;;4975362;28;20175;-36
2022/07/12 00:24:21;;;;;;;4.97;4.23;;;15.00;99.90;;;;;;4975158;28;20184;-37
2022/07/12 00:26:47;;;;;;;4.33;3.93;;;15.00;99.90;;;;;;4959269;28;20257;-37
2022/07/12 00:29:13;;;;;;;4.60;3.53;;;15.10;99.90;;;;;;4959361;28;20180;-36
2022/07/12 00:31:39;;;;;;;5.97;3.70;;;15.20;99.90;;;;;;4959396;28;20606;-35
2022/07/12 00:34:04;;;;;;;4.33;3.93;;;15.30;99.90;;;;;;4959039;28;20176;-36
2022/07/12 00:36:31;;;;;;;4.53;4.13;;;15.40;99.90;;;;;;4974810;28;20282;-36
2022/07/12 00:38:56;;;;;;;5.33;3.70;;;15.30;99.90;;;;;;4990451;28;20184;-36
2022/07/12 00:41:22;;;;;;;4.70;4.20;;;15.20;99.90;;;;;;4958893;28;20246;-35
2022/07/12 00:43:48;;;;;;;4.37;3.97;;;15.30;99.90;;;;;;4965328;28;20215;-36
2022/07/12 00:46:17;;;;;;;4.10;3.70;;;15.30;99.90;;;;;;4955981;28;20227;-36
2022/07/12 00:48:43;;;;;;;4.07;3.67;;;15.30;99.90;;;;;;4971872;28;20192;-36
2022/07/12 00:51:10;;;;;;;6.10;4.10;;;15.30;99.90;;;;;;4954489;28;20228;-37
2022/07/12 00:53:36;;;;;;;4.00;3.70;;;15.30;99.90;;;;;;4959293;28;20172;-36
2022/07/12 00:56:04;;;;;;;4.73;4.30;;;15.40;99.90;;;;;;4974891;28;20231;-36
2022/07/12 00:58:31;;;;;;;4.53;3.83;;;15.30;99.90;;;;;;4975267;28;20187;-36
2022/07/12 01:00:57;;;;;;;5.90;4.20;;;15.20;99.90;;;;;;4974739;28;20276;-36
2022/07/12 01:03:23;;;;;;;4.27;3.90;;;15.20;99.90;;;;;;4975167;28;20267;-36
2022/07/12 01:05:49;;;;;;;4.77;4.37;;;15.10;99.90;;;;;;4973804;28;20279;-36
2022/07/12 01:08:16;;;;;;;4.83;4.37;;;15.00;99.90;;;;;;4974891;28;20195;-37
2022/07/12 01:10:43;;;;;;;4.47;4.07;;;15.00;99.90;;;;;;4974229;28;20290;-36
2022/07/12 01:13:09;;;;;;;4.50;4.10;;;15.00;99.90;;;;;;4974608;28;20180;-36
2022/07/12 01:15:36;;;;;;;5.03;3.80;;;14.90;99.90;;;;;;4958421;28;20255;-37
2022/07/12 01:18:03;;;;;;;4.43;4.03;;;14.80;99.90;;;;;;4957805;28;20186;-37
2022/07/12 01:20:29;;;;;;;4.93;3.90;;;14.80;99.90;;;;;;4958258;28;20195;-36
2022/07/12 01:22:59;;;;;;;4.30;3.90;;;14.70;99.90;;;;;;4958528;28;20187;-37
2022/07/12 01:25:26;;;;;;;5.07;4.17;;;14.70;99.90;;;;;;4992234;28;20219;-37
2022/07/12 01:27:52;;;;;;;6.27;4.20;;;14.70;99.90;;;;;;4991755;28;20180;-37
2022/07/12 01:30:19;;;;;;;5.20;4.47;;;14.60;99.90;;;;;;4974369;28;20231;-36
2022/07/12 01:32:45;;;;;;;4.60;4.20;;;14.60;99.90;;;;;;4974260;28;20176;-39
2022/07/12 01:35:11;;;;;;;4.33;3.93;;;14.60;99.90;;;;;;4958069;28;20245;-38
2022/07/12 01:37:40;;;;;;;5.97;4.13;;;14.60;99.90;;;;;;4992035;28;20190;-36
2022/07/12 01:40:11;;;;;;;4.53;4.13;;;14.60;99.90;;;;;;4974036;28;20243;-37
2022/07/12 01:42:38;;;;;;;4.43;4.10;;;14.70;99.90;;;;;;4973942;28;20183;-36
2022/07/12 01:45:06;;;;;;;4.43;4.03;;;14.60;99.90;;;;;;4991008;28;20172;-36
2022/07/12 01:47:32;;;;;;;4.90;4.40;;;14.60;99.90;;;;;;4974058;28;20262;-37
2022/07/12 01:49:59;;;;;;;5.10;4.60;;;14.60;99.90;;;;;;4974329;28;20200;-35
2022/07/12 01:52:26;;;;;;;4.80;4.40;;;14.60;99.90;;;;;;4958372;28;20274;-37
2022/07/12 01:54:54;;;;;;;4.80;4.40;;;14.60;99.90;;;;;;4957999;28;20176;-38
2022/07/12 01:57:20;;;;;;;6.20;4.70;;;14.60;99.90;;;;;;4973507;28;20203;-36
2022/07/12 01:59:46;;;;;;;5.63;5.00;;;14.60;99.90;;;;;;4973872;28;20191;-36
2022/07/12 02:02:12;;;;;;;4.90;4.43;;;14.50;99.90;;;;;;4957891;28;20187;-36
2022/07/12 02:04:38;;;;;;;5.30;4.80;;;14.50;99.90;;;;;;4973518;28;20214;-36
2022/07/12 02:07:05;;;;;;;5.27;4.00;;;14.40;99.90;;;;;;4991555;28;20215;-36
2022/07/12 02:09:31;;;;;;;4.70;4.30;;;14.50;99.90;;;;;;4973394;28;20231;-36
2022/07/12 02:11:57;;;;;;;5.13;4.53;;;14.50;99.90;;;;;;4973332;28;20187;-36
2022/07/12 02:14:24;;;;;;;4.77;4.10;;;14.50;99.90;;;;;;4973066;28;20190;-36
2022/07/12 02:16:50;;;;;;;4.40;4.00;;;14.50;99.90;;;;;;4972605;28;20226;-37
2022/07/12 02:19:16;;;;;;;5.10;4.10;;;14.50;99.90;;;;;;4957896;28;20183;-36
2022/07/12 02:21:42;;;;;;;4.50;4.10;;;14.50;99.90;;;;;;4957521;28;20544;-36
2022/07/12 02:24:08;;;;;;;5.07;4.10;;;14.40;99.90;;;;;;4957403;28;20195;-36
2022/07/12 02:26:37;;;;;;;4.60;4.20;;;14.40;99.90;;;;;;4957406;28;20270;-36
2022/07/12 02:29:05;;;;;;;5.17;4.77;;;14.40;99.90;;;;;;4973932;28;20181;-36
2022/07/12 02:31:31;;;;;;;5.50;4.40;;;14.30;99.90;;;;;;4957487;28;20222;-36
2022/07/12 02:33:57;;;;;;;4.93;4.40;;;14.30;99.90;;;;;;4957407;28;20211;-36
2022/07/12 02:36:24;;;;;;;4.60;4.20;;;14.30;99.90;;;;;;4957551;28;20237;-37
2022/07/12 02:38:50;;;;;;;4.97;4.47;;;14.30;99.90;;;;;;4973037;28;20176;-36
2022/07/12 02:41:16;;;;;;;4.83;4.43;;;14.30;99.90;;;;;;4973772;28;20192;-36
2022/07/12 02:43:42;;;;;;;5.33;4.17;;;14.20;99.90;;;;;;4973253;28;20200;-37
2022/07/12 02:46:10;;;;;;;4.73;4.30;;;14.20;99.90;;;;;;4957278;28;20210;-36
2022/07/12 02:48:36;;;;;;;5.60;4.60;;;14.20;99.90;;;;;;4990906;28;20557;-36
2022/07/12 02:51:04;;;;;;;4.67;4.27;;;14.20;99.90;;;;;;4957343;28;20215;-36
2022/07/12 02:53:31;;;;;;;4.90;4.50;;;14.10;99.90;;;;;;4973926;28;20273;-37
2022/07/12 02:55:56;;;;;;;5.87;4.70;;;14.10;99.90;;;;;;4972526;28;20206;-36
2022/07/12 02:58:22;;;;;;;5.60;4.20;;;14.00;99.90;;;;;;4973242;28;20671;-36
2022/07/12 03:00:48;;;;;;;4.60;4.20;;;14.00;99.90;;;;;;4990570;28;20274;-35
2022/07/12 03:03:15;;;;;;;4.97;4.57;;;14.00;99.90;;;;;;4958760;28;20605;-36
2022/07/12 03:05:42;;;;;;;6.00;4.50;;;13.90;99.90;;;;;;4960938;28;20218;-36
2022/07/12 03:08:08;;;;;;;4.60;4.20;;;13.90;99.90;;;;;;4960879;28;20233;-35
2022/07/12 03:10:35;;;;;;;4.60;4.20;;;13.90;99.90;;;;;;4976326;28;20199;-36
2022/07/12 03:13:01;;;;;;;4.80;4.40;;;13.90;99.90;;;;;;4977246;28;20179;-36
2022/07/12 03:15:28;;;;;;;5.53;4.50;;;13.90;99.90;;;;;;4976913;28;20244;-36
2022/07/12 03:17:55;;;;;;;4.70;4.30;;;13.80;99.90;;;;;;4944734;28;20209;-37
2022/07/12 03:20:21;;;;;;;5.43;4.80;;;13.80;99.90;;;;;;4976929;28;20187;-36
2022/07/12 03:22:50;;;;;;;5.17;4.30;;;13.70;99.90;;;;;;4943625;28;20183;-36
2022/07/12 03:25:16;;;;;;;5.17;4.67;;;13.70;99.90;;;;;;4954101;28;20191;-36
2022/07/12 03:27:42;;;;;;;5.30;4.70;;;13.70;99.90;;;;;;4977107;28;20191;-36
2022/07/12 03:30:09;;;;;;;5.20;4.70;;;13.60;99.90;;;;;;4960368;28;20276;-37
2022/07/12 03:32:35;;;;;;;5.00;4.27;;;13.60;99.90;;;;;;4976708;28;20228;-36
2022/07/12 03:35:01;;;;;;;5.50;4.87;;;13.60;99.90;;;;;;4958832;28;20180;-37
2022/07/12 03:37:28;;;;;;;5.27;4.40;;;13.60;99.90;;;;;;4976250;28;20231;-38
2022/07/12 03:39:54;;;;;;;5.53;4.63;;;13.70;99.90;;;;;;4976189;28;20277;-36
2022/07/12 03:42:20;;;;;;;6.53;4.87;;;13.70;99.90;;;;;;4975812;28;20277;-37
2022/07/12 03:44:46;;;;;;;5.10;4.60;;;13.70;99.90;;;;;;4959044;28;20216;-36
2022/07/12 03:47:12;;;;;;;5.37;4.87;;;13.80;99.90;;;;;;4976513;28;20243;-36
2022/07/12 03:49:38;;;;;;;6.17;4.77;;;13.80;99.90;;;;;;4975317;28;20191;-36
2022/07/12 03:52:04;;;;;;;5.50;5.00;;;13.80;99.90;;;;;;4993563;28;20181;-36
2022/07/12 03:54:30;;;;;;;5.90;5.30;;;13.80;99.90;;;;;;4975940;28;20168;-36
2022/07/12 03:57:14;;;;;;;9.80;5.23;;;13.80;99.90;;;;;;4993611;28;20577;-36
2022/07/12 03:59:44;;;;;;;5.57;4.90;;;13.80;99.90;;;;;;4977269;28;20187;-36
2022/07/12 04:02:10;;;;;;;5.50;5.00;;;13.90;99.90;;;;;;4959380;28;20189;-36
2022/07/12 04:04:36;;;;;;;5.17;4.73;;;13.90;99.90;;;;;;4976124;28;20182;-36
2022/07/12 04:07:02;;;;;;;6.77;5.40;;;14.00;99.90;;;;;;4976236;28;20281;-36
2022/07/12 04:09:28;;;;;;;8.63;5.77;;;14.00;99.90;;;;;;4976222;28;20182;-36
2022/07/12 04:11:54;;;;;;;6.23;5.30;;;14.10;99.90;;;;;;4976161;28;20297;-37
2022/07/12 04:14:20;;;;;;;5.33;4.80;;;14.10;99.90;;;;;;4974919;28;20222;-36
2022/07/12 04:16:46;;;;;;;6.77;5.50;;;14.10;99.90;;;;;;4973023;28;20204;-37
2022/07/12 04:19:12;;;;;;;6.43;4.90;;;14.10;99.90;;;;;;4976217;28;20254;-37
2022/07/12 04:21:38;;;;;;;5.33;4.83;;;14.10;99.90;;;;;;4975281;28;20191;-36
2022/07/12 04:24:04;;;;;;;5.60;4.97;;;14.10;99.90;;;;;;4993160;28;20174;-36
2022/07/12 04:26:31;;;;;;;5.17;4.77;;;14.10;99.90;;;;;;4975702;28;20215;-36
2022/07/12 04:28:57;;;;;;;5.47;4.97;;;14.10;99.90;;;;;;4975450;28;20262;-36
2022/07/12 04:31:24;;;;;;;11.03;5.00;;;14.20;99.90;;;;;;4974572;28;20326;-36
2022/07/12 04:33:51;;;;;;;6.33;5.53;;;14.20;99.90;;;;;;4959432;28;20660;-36
2022/07/12 04:36:17;;;;;;;7.30;4.90;;;14.20;99.90;;;;;;4974588;28;20210;-36
2022/07/12 04:38:43;;;;;;;5.60;5.10;;;14.30;99.90;;;;;;4975841;28;20271;-36
2022/07/12 04:41:09;;;;;;;5.93;4.87;;;14.30;99.90;;;;;;4975622;28;20183;-36
2022/07/12 04:43:35;;;;;;;5.23;4.70;;;14.30;99.90;;;;;;4992507;28;20266;-36
2022/07/12 04:46:10;;;;;;;5.97;4.50;;;14.30;99.90;;;;;;4956276;28;20215;-38
2022/07/12 04:48:37;;;;;;;6.03;4.80;;;14.30;99.90;;;;;;4987410;28;20191;-36
2022/07/12 04:51:03;;;;;;;5.43;4.80;;;14.40;99.90;;;;;;4975353;28;20206;-35
2022/07/12 04:53:30;;;;;;;6.93;4.57;;;14.40;99.90;;;;;;4974932;28;20183;-37
2022/07/12 04:55:57;;;;;;;6.80;5.13;;;14.50;99.90;;;;;;4973532;28;20199;-36
2022/07/12 04:58:23;;;;;;;5.83;5.17;;;14.50;99.90;;;;;;4976007;28;20262;-36
2022/07/12 05:00:50;;;;;;;5.60;4.93;;;14.60;99.90;;;;;;4961968;28;20187;-37
2022/07/12 05:03:16;;;;;;;5.63;5.00;;;14.50;99.90;;;;;;4987228;28;20175;-36
2022/07/12 05:08:19;;;;;;;6.67;5.23;;;14.50;99.90;;;;;;5009189;28;20219;-42
2022/07/12 05:10:45;;;;;;;5.73;4.60;;;14.50;99.90;;;;;;4976835;28;20215;-43
2022/07/12 05:13:11;;;;;;;8.50;5.07;;;14.50;99.90;;;;;;4994169;28;20185;-43
2022/07/12 05:15:37;;;;;;;7.10;5.40;;;14.60;99.90;;;;;;4993158;28;20187;-43
2022/07/12 05:18:03;;;;;;;6.50;5.00;;;14.60;99.90;;;;;;5011821;28;20257;-42
2022/07/12 05:20:29;;;;;;;6.90;5.33;;;14.60;99.90;;;;;;4994092;28;20179;-43
2022/07/12 05:22:55;;;;;;;6.90;4.80;;;14.50;99.90;;;;;;4993401;28;20677;-43
2022/07/12 05:25:21;;;;;;;5.33;4.83;;;14.60;99.90;;;;;;4977354;28;20175;-43
2022/07/12 05:27:46;;;;;;;5.50;5.07;;;14.70;99.90;;;;;;4993436;28;20725;-43
2022/07/12 05:30:12;;;;;;;8.33;4.90;;;14.70;99.90;;;;;;4993301;28;20238;-43
2022/07/12 05:32:38;;;;;;;5.87;5.30;;;14.70;99.90;;;;;;4977961;28;20249;-45
2022/07/12 05:35:05;;;;;;;5.30;4.77;;;14.80;99.90;;;;;;4976981;28;20186;-45
2022/07/12 05:37:33;;;;;;;5.67;4.93;;;14.90;99.90;;;;;;4977877;28;20289;-44
2022/07/12 05:40:02;;;;;;;8.67;4.70;;;15.00;99.90;;;;;;4977144;28;20230;-44
2022/07/12 05:42:28;;;;;;;6.50;5.17;;;15.10;99.90;;;;;;4993613;28;20239;-45
2022/07/12 05:44:54;;;;;;;7.10;5.47;;;15.30;99.90;;;;;;4993255;28;20403;-43
2022/07/12 05:47:20;;;;;;;5.73;5.00;;;15.30;99.90;;;;;;4992592;28;20206;-44
2022/07/12 05:49:46;;;;;;;6.17;5.50;;;15.40;99.90;;;;;;4976459;28;20191;-44
2022/07/12 05:54:56;;;;;;;6.17;5.63;;;15.60;99.90;;;;;;4992850;28;20234;-44
2022/07/12 05:57:24;;;;;;;5.30;4.80;;;15.80;99.90;;;;;;4993305;28;20671;-44
2022/07/12 05:59:50;;;;;;;6.63;5.70;;;15.80;99.90;;;;;;4993446;28;20265;-44
2022/07/12 06:02:16;;;;;;;6.03;4.67;;;16.00;99.90;;;;;;4992772;28;20176;-44
2022/07/12 06:04:43;;;;;;;5.37;4.97;;;16.10;99.90;;;;;;4993589;28;20183;-44
2022/07/12 06:07:09;;;;;;;6.03;5.53;;;16.30;99.90;;;;;;4992970;28;20222;-44
2022/07/12 06:09:37;;;;;;;5.47;4.93;;;16.50;99.90;;;;;;5009590;28;20182;-44
2022/07/12 06:12:03;;;;;;;5.63;4.87;;;16.60;99.90;;;;;;4993190;28;20191;-44
2022/07/12 06:14:29;;;;;;;6.53;4.80;;;16.80;99.90;;;;;;4993472;28;20175;-44
2022/07/12 06:16:55;;;;;;;6.20;5.37;;;17.00;99.90;;;;;;4993084;28;20199;-44
2022/07/12 06:19:23;;;;;;;6.57;5.93;;;17.00;99.90;;;;;;4975412;28;20233;-44
2022/07/12 06:21:49;;;;;;;6.03;4.93;;;17.10;99.90;;;;;;4992991;28;20218;-44
2022/07/12 06:24:15;;;;;;;6.53;5.00;;;17.30;99.90;;;;;;4993562;28;20226;-44
2022/07/12 06:26:41;;;;;;;6.57;5.77;;;17.40;99.90;;;;;;4992851;28;20207;-44
2022/07/12 06:29:07;;;;;;;5.70;5.20;;;17.60;99.90;;;;;;4976889;28;20218;-44
2022/07/12 06:31:34;;;;;;;6.27;5.23;;;17.80;99.90;;;;;;4976967;28;20207;-44
2022/07/12 06:34:00;;;;;;;7.43;5.33;;;18.00;99.90;;;;;;4992973;28;20711;-44
2022/07/12 06:36:26;;;;;;;6.17;5.47;;;18.20;99.90;;;;;;4976677;28;20207;-44
2022/07/12 06:38:52;;;;;;;6.13;5.63;;;18.30;99.90;;;;;;4995466;28;20171;-44
2022/07/12 06:41:17;;;;;;;6.47;5.80;;;18.30;99.90;;;;;;4997133;28;20185;-44
2022/07/12 06:43:43;;;;;;;6.70;6.03;;;18.20;99.90;;;;;;4997228;28;20172;-44
2022/07/12 06:46:09;;;;;;;5.57;5.07;;;18.40;99.90;;;;;;4980724;28;20264;-44
2022/07/12 06:48:35;;;;;;;5.72;5.05;;;18.50;99.90;;;;;;4997160;28;20187;-44
2022/07/12 06:51:01;;;;;;;7.15;5.50;;;18.70;99.90;;;;;;4997075;28;20198;-44
2022/07/12 06:53:26;;;;;;;8.25;6.18;;;18.90;99.90;;;;;;4997148;28;20206;-44
2022/07/12 06:55:52;;;;;;;7.50;5.55;;;19.00;99.90;;;;;;4996785;28;20203;-42
2022/07/12 06:58:18;;;;;;;6.82;5.53;;;19.20;99.90;;;;;;4980920;28;20176;-44
2022/07/12 07:00:44;;;;;;;6.10;5.47;;;19.40;99.90;;;;;;4980497;28;20237;-44
2022/07/12 07:03:10;;;;;;;7.32;5.10;;;19.50;99.90;;;;;;4997014;28;20179;-44
2022/07/12 07:05:36;;;;;;;5.82;4.65;;;19.50;99.90;;;;;;5012588;28;20298;-44
2022/07/12 07:08:03;;;;;;;5.68;4.90;;;19.60;99.90;;;;;;4996462;28;20195;-44
2022/07/12 07:10:29;;;;;;;4.80;4.40;;;19.80;99.90;;;;;;4996707;28;20245;-44
2022/07/12 07:12:55;;;;;;;5.43;4.47;;;19.70;99.90;;;;;;4996668;28;20211;-44
2022/07/12 07:15:20;;;;;;;5.15;4.68;;;19.90;99.90;;;;;;5012828;28;20234;-44
2022/07/12 07:17:46;;;;;;;5.75;4.78;;;20.10;99.90;;;;;;4996259;28;20200;-45
2022/07/12 07:20:12;;;;;;;5.05;4.40;;;20.20;99.90;;;;;;4996266;28;20180;-44
2022/07/12 07:22:39;;;;;;;5.65;4.05;;;20.40;99.90;;;;;;4996289;28;20183;-45
2022/07/12 07:25:06;;;;;;;4.88;4.47;;;20.60;99.90;;;;;;4996208;28;20187;-45
2022/07/12 07:27:32;;;;;;;4.93;4.47;;;20.80;99.90;;;;;;4996197;28;20686;-45
2022/07/12 07:32:42;;;;;;;5.10;4.10;;;21.00;99.90;;;;;;5013470;28;20214;-45
2022/07/12 07:35:09;;;;;;;4.82;4.43;;;21.20;99.90;;;;;;4993091;28;20171;-45
2022/07/12 07:37:35;;;;;;;5.13;3.88;;;21.20;99.90;;;;;;4995380;28;20298;-45
2022/07/12 07:40:01;;;;;;;4.68;4.28;;;21.40;99.90;;;;;;4995882;28;20267;-45
2022/07/12 07:42:27;;;;;;;4.60;4.20;;;21.50;99.90;;;;;;4995922;28;20651;-45
2022/07/12 07:44:52;;;;;;;4.32;3.92;;;21.50;99.90;;;;;;4995782;28;20167;-44
2022/07/12 07:47:18;;;;;;;4.60;3.90;;;21.60;99.90;;;;;;4995835;28;20226;-45
2022/07/12 07:49:44;;;;;;;4.25;3.70;;;21.80;99.90;;;;;;5011877;28;20190;-45
2022/07/12 07:52:10;;;;;;;3.78;3.47;;;21.90;99.90;;;;;;5012321;28;20217;-45
2022/07/12 07:54:35;;;;;;;5.20;3.38;;;21.90;99.90;;;;;;4995681;28;20306;-45
2022/07/12 07:57:02;;;;;;;4.65;3.88;;;22.10;99.90;;;;;;4995844;28;20199;-45
2022/07/12 07:59:27;;;;;;;3.92;3.10;;;22.20;99.90;;;;;;4995569;28;20180;-45
2022/07/12 08:01:53;;;;;;;3.33;3.00;;;22.20;99.90;;;;;;5012109;28;20186;-45
2022/07/12 08:04:21;;;;;;;4.00;3.13;;;22.30;99.90;;;;;;4995338;28;20250;-45
2022/07/12 08:06:48;;;;;;;3.17;2.88;;;22.50;99.90;;;;;;4995350;28;20234;-45
2022/07/12 08:09:14;;;;;;;4.65;3.25;;;22.70;99.90;;;;;;4995496;28;20183;-45
2022/07/12 08:11:41;;;;;;;4.35;3.95;;;22.60;99.90;;;;;;4995326;28;20282;-45
2022/07/12 08:14:07;;;;;;;3.95;3.55;;;22.70;99.90;;;;;;5013009;28;20176;-45
2022/07/12 08:16:33;;;;;;;4.47;4.05;;;22.80;99.90;;;;;;4995643;28;20256;-45
2022/07/12 08:18:59;;;;;;;4.38;3.53;;;23.00;99.90;;;;;;4978894;28;20179;-45
2022/07/12 08:21:25;;;;;;;4.60;3.50;;;23.00;99.90;;;;;;4995290;28;20207;-45
2022/07/12 08:23:51;;;;;;;3.53;3.13;;;23.20;99.90;;;;;;4979064;28;20237;-45
2022/07/12 08:26:17;;;;;;;2.90;2.20;;;23.20;99.90;;;;;;5012979;28;20314;-45
2022/07/12 08:28:43;;;;;;;3.38;2.17;;;23.10;99.90;;;;;;5011389;28;20266;-45
2022/07/12 08:31:09;;;;;;;2.50;2.30;;;23.40;99.90;;;;;;5012529;28;20199;-45
2022/07/12 08:33:36;;;;;;;3.05;2.60;;;23.60;99.90;;;;;;4994907;28;20259;-44
2022/07/12 08:36:02;;;;;;;2.70;2.50;;;23.70;99.90;;;;;;5012473;28;20231;-45
2022/07/12 08:38:30;;;;;;;2.78;2.53;;;23.90;99.90;;;;;;5012583;28;20282;-45
2022/07/12 08:40:56;;;;;;;2.75;2.50;;;24.10;99.90;;;;;;5011188;28;20210;-45
2022/07/12 08:43:22;;;;;;;3.53;2.70;;;24.30;99.90;;;;;;5012530;28;20226;-45
2022/07/12 08:45:48;;;;;;;2.60;2.40;;;24.60;99.90;;;;;;4994518;28;20209;-45
2022/07/12 08:48:13;;;;;;;3.58;2.60;;;24.70;99.90;;;;;;4994406;28;20187;-45
2022/07/12 08:50:39;;;;;;;4.18;2.40;;;25.00;99.90;;;;;;4994595;28;20234;-45
2022/07/12 08:53:10;;;;;;;3.05;2.75;;;24.90;99.90;;;;;;5011062;28;20247;-45
2022/07/12 08:55:37;;;;;;;3.00;2.70;;;24.60;99.90;;;;;;4994422;28;20180;-45
2022/07/12 08:58:15;;;;;;;3.05;2.72;;;24.50;99.90;;;;;;4994645;28;20183;-45
2022/07/12 09:00:41;;;;;;;2.97;2.67;;;24.50;99.90;;;;;;4993770;28;20179;-45
2022/07/12 09:03:07;;;;;;;2.47;2.25;;;24.80;99.90;;;;;;4994486;28;20183;-45
2022/07/12 09:05:34;;;;;;;3.85;2.63;;;25.10;99.90;;;;;;4994166;28;20206;-45
2022/07/12 09:08:07;;;;;;;2.80;2.50;;;25.40;99.90;;;;;;5010681;28;20202;-45
2022/07/12 09:10:35;;;;;;;3.05;2.60;;;25.40;99.90;;;;;;4994238;28;20301;-45
2022/07/12 09:13:01;;;;;;;2.30;2.20;;;25.80;99.90;;;;;;4994131;28;20186;-45
2022/07/12 09:15:27;;;;;;;2.97;2.53;;;26.00;99.90;;;;;;4977995;28;20183;-45
2022/07/12 09:18:01;;;;;;;2.92;2.38;;;26.20;99.90;;;;;;4994350;28;20205;-45
2022/07/12 09:20:37;;;;;;;4.47;2.40;;;26.30;99.90;;;;;;5009790;28;20187;-45
2022/07/12 09:23:10;;;;;;;1.92;1.83;;;26.30;99.90;;;;;;4994014;28;20183;-45
2022/07/12 09:25:43;;;;;;;2.70;2.03;;;26.40;99.90;;;;;;4993630;28;20183;-45
2022/07/12 09:28:09;;;;;;;2.00;1.90;;;26.50;99.90;;;;;;4994211;28;20175;-45
2022/07/12 09:30:37;;;;;;;3.28;2.17;;;26.80;99.90;;;;;;4994013;28;20228;-45
2022/07/12 09:36:07;;;;;;;2.28;1.77;;;26.40;99.90;;;;;;5009748;28;20706;-45
2022/07/12 09:38:53;;;;;;;2.25;1.70;;;26.30;99.90;;;;;;5010412;28;20175;-45
2022/07/12 09:41:21;;;;;;;3.85;2.00;;;25.80;99.90;;;;;;4994016;28;20636;-45
2022/07/12 09:43:48;;;;;;;2.25;2.05;;;25.70;99.90;;;;;;4993615;28;20191;-45
2022/07/12 09:46:14;;;;;;;2.00;1.90;;;26.00;99.90;;;;;;4993678;28;20254;-45
2022/07/12 09:48:41;;;;;;;1.80;1.70;;;25.80;99.90;;;;;;4993364;28;20179;-45
2022/07/12 09:51:09;;;;;;;2.17;1.77;;;25.80;99.90;;;;;;4977421;28;20211;-45
2022/07/12 09:53:42;;;;;;;2.72;1.92;;;25.70;99.90;;;;;;4993621;28;20191;-45
2022/07/12 09:56:11;;;;;;;2.17;1.58;;;25.60;99.90;;;;;;5009820;28;20195;-45
2022/07/12 09:58:49;;;;;;;1.90;1.67;;;25.60;99.90;;;;;;4993659;28;20206;-45
2022/07/12 10:01:16;;;;;;;4.55;1.88;;;25.70;99.90;;;;;;4993242;28;20187;-45
2022/07/12 10:03:43;;;;;;;1.50;1.40;;;25.50;99.90;;;;;;5009759;28;20183;-45
2022/07/12 10:06:11;;;;;;;1.58;1.48;;;25.70;99.90;;;;;;4993091;28;20202;-45
2022/07/12 10:08:36;;;;;;;1.60;1.50;;;26.10;99.90;;;;;;4993461;28;20202;-45
2022/07/12 10:11:03;;;;;;;1.60;1.50;;;26.50;99.90;;;;;;4993206;28;20675;-45
2022/07/12 10:13:30;;;;;;;1.17;1.17;;;26.60;99.90;;;;;;4992839;28;20175;-45
2022/07/12 10:16:01;;;;;;;2.80;1.65;;;26.50;99.90;;;;;;4993288;28;20206;-45
2022/07/12 10:18:27;;;;;;;1.27;1.25;;;26.70;99.90;;;;;;4977373;28;20233;-45
2022/07/12 10:20:53;;;;;;;1.42;1.33;;;27.00;99.90;;;;;;4993462;28;20238;-45
2022/07/12 10:23:36;;;;;;;1.60;1.50;;;27.30;99.90;;;;;;5010945;28;20664;-45
2022/07/12 10:26:25;;;;;;;3.15;1.25;;;27.50;99.90;;;;;;5009159;28;20202;-44
2022/07/12 10:29:09;;;;;;;1.50;1.40;;;27.10;99.90;;;;;;5010869;28;20180;-44
2022/07/12 10:31:37;;;;;;;1.95;1.30;;;26.90;99.90;;;;;;4993157;28;20215;-44
2022/07/12 10:34:10;;;;;;;2.00;1.77;;;27.00;99.90;;;;;;4992895;28;20210;-44
2022/07/12 10:36:55;;;;;;;1.60;1.42;;;26.90;99.90;;;;;;5010484;28;20202;-44
2022/07/12 10:39:30;;;;;;;1.27;1.17;;;26.50;99.90;;;;;;5009667;28;20187;-44
2022/07/12 10:42:07;;;;;;;2.05;1.50;;;26.20;99.90;;;;;;4992980;28;20190;-44
2022/07/12 10:44:39;;;;;;;2.05;1.40;;;26.30;99.90;;;;;;4992838;28;20528;-44
2022/07/12 10:47:07;;;;;;;1.20;1.10;;;26.40;99.90;;;;;;4993044;28;20289;-44
2022/07/12 10:49:34;;;;;;;1.40;1.30;;;26.40;99.90;;;;;;4993040;28;20179;-44
2022/07/12 10:52:13;;;;;;;1.95;1.30;;;26.60;99.90;;;;;;4993094;28;20203;-44
2022/07/12 10:55:02;;;;;;;1.05;1.05;;;26.60;99.90;;;;;;4992669;28;20524;-44
2022/07/12 10:57:50;;;;;;;1.20;1.10;;;26.30;99.90;;;;;;4966367;28;20675;-44
2022/07/12 11:00:17;;;;;;;1.30;1.20;;;26.30;99.90;;;;;;4993063;28;20183;-44
2022/07/12 11:02:43;;;;;;;1.20;1.10;;;26.40;99.90;;;;;;4993019;28;20274;-44
2022/07/12 11:05:09;;;;;;;1.80;1.35;;;26.60;99.90;;;;;;4992658;28;20182;-44
2022/07/12 11:07:35;;;;;;;1.63;1.23;;;26.50;99.90;;;;;;4992249;28;20221;-45
2022/07/12 11:10:03;;;;;;;1.40;1.30;;;26.80;99.90;;;;;;5008843;28;20179;-44
2022/07/12 11:12:30;;;;;;;2.03;1.40;;;27.10;99.90;;;;;;4992721;28;20230;-44
2022/07/12 11:14:58;;;;;;;1.27;1.17;;;27.30;99.90;;;;;;5010217;28;20180;-44
2022/07/12 11:17:31;;;;;;;1.48;1.30;;;27.40;99.90;;;;;;4976565;28;20203;-44
2022/07/12 11:20:28;;;;;;;2.20;1.45;;;27.40;99.90;;;;;;4992957;28;20175;-44
2022/07/12 11:22:53;;;;;;;1.40;1.30;;;27.20;99.90;;;;;;4980938;28;20190;-44
2022/07/12 11:25:20;;;;;;;1.48;1.38;;;27.10;99.90;;;;;;4995213;28;20190;-44
2022/07/12 11:27:47;;;;;;;1.30;1.20;;;27.20;99.90;;;;;;5013698;28;20286;-44
2022/07/12 11:30:13;;;;;;;1.27;1.23;;;27.60;99.90;;;;;;5001439;28;20243;-44
2022/07/12 11:32:43;;;;;;;2.00;1.27;;;28.00;99.90;;;;;;4995881;28;20178;-45
2022/07/12 11:35:22;;;;;;;1.83;1.58;;;28.30;99.30;;;;;;5013235;28;20195;-44
2022/07/12 11:37:56;;;;;;;1.40;1.30;;;28.60;99.50;;;;;;4994806;28;20246;-44
2022/07/12 11:40:24;;;;;;;2.90;1.20;;;28.70;99.10;;;;;;5010517;28;20190;-44
2022/07/12 11:42:54;;;;;;;1.40;1.30;;;28.90;98.50;;;;;;4979053;28;20188;-44
2022/07/12 11:45:20;;;;;;;1.80;1.55;;;29.00;98.80;;;;;;4995039;28;20179;-44
2022/07/12 11:47:45;;;;;;;1.38;1.27;;;28.80;97.80;;;;;;4979574;28;20215;-44
2022/07/12 11:50:11;;;;;;;2.08;1.35;;;29.00;98.10;;;;;;4995964;28;20187;-44
2022/07/12 11:52:37;;;;;;;1.40;1.30;;;29.00;98.00;;;;;;5013366;28;20187;-45
2022/07/12 11:55:07;;;;;;;1.27;1.10;;;29.00;97.40;;;;;;4975874;28;20210;-45
2022/07/12 11:57:34;;;;;;;1.80;1.20;;;29.20;97.60;;;;;;4992514;28;20200;-45
2022/07/12 12:00:12;;;;;;;1.30;1.20;;;29.00;98.10;;;;;;4992162;28;20176;-45
2022/07/12 12:02:38;;;;;;;1.23;1.13;;;29.30;97.00;;;;;;4992525;28;20218;-45
2022/07/12 12:05:05;;;;;;;2.53;1.20;;;29.20;96.40;;;;;;4993521;28;20212;-45
2022/07/12 12:07:31;;;;;;;1.30;1.15;;;29.40;96.80;;;;;;5006396;28;20238;-45
2022/07/12 12:09:58;;;;;;;2.35;1.20;;;29.40;96.20;;;;;;5013064;28;20203;-45
2022/07/12 12:12:24;;;;;;;2.63;1.13;;;29.40;95.30;;;;;;5011053;28;20314;-45
2022/07/12 12:14:51;;;;;;;1.30;1.17;;;29.40;96.40;;;;;;4969562;28;20176;-45
2022/07/12 12:17:17;;;;;;;1.40;1.17;;;29.70;96.20;;;;;;4994440;28;20200;-45
2022/07/12 12:19:43;;;;;;;1.30;1.20;;;30.00;97.50;;;;;;4998148;28;20191;-45
2022/07/12 12:22:36;;;;;;;1.77;1.10;;;30.20;96.40;;;;;;4987401;28;20183;-45
2022/07/12 12:25:05;;;;;;;2.38;1.08;;;30.20;96.10;;;;;;4983724;28;20195;-45
2022/07/12 12:27:31;;;;;;;1.10;1.10;;;30.50;96.00;;;;;;4994281;28;20198;-45
2022/07/12 12:30:09;;;;;;;1.45;1.13;;;30.70;95.20;;;;;;4994002;28;20242;-44
2022/07/12 12:32:45;;;;;;;1.42;1.15;;;30.80;94.70;;;;;;4985728;28;20179;-44
2022/07/12 12:35:13;;;;;;;1.40;1.30;;;30.50;94.70;;;;;;4992457;28;20184;-44
2022/07/12 12:37:40;;;;;;;0.95;0.95;;;30.10;95.40;;;;;;4969065;28;20235;-44
2022/07/12 12:40:07;;;;;;;1.42;1.33;;;30.30;94.90;;;;;;4978016;28;20183;-44
2022/07/12 12:42:33;;;;;;;1.25;1.15;;;30.40;94.50;;;;;;4989783;28;20186;-44
2022/07/12 12:44:59;;;;;;;1.40;1.20;;;30.60;94.10;;;;;;4993913;28;20180;-44
2022/07/12 12:47:33;;;;;;;1.27;1.17;;;30.60;93.30;;;;;;4991610;28;20616;-44
2022/07/12 12:50:02;;;;;;;1.80;1.30;;;30.40;94.20;;;;;;5011222;28;20199;-44
2022/07/12 12:52:30;;;;;;;1.20;1.10;;;30.20;94.20;;;;;;4993729;28;20183;-44
2022/07/12 12:54:57;;;;;;;0.95;0.95;;;30.30;93.50;;;;;;4986217;28;20184;-44
2022/07/12 12:57:25;;;;;;;1.30;1.20;;;30.60;93.40;;;;;;4974552;28;20195;-44
2022/07/12 12:59:54;;;;;;;1.13;1.02;;;30.60;92.90;;;;;;4992733;28;20195;-44
2022/07/12 13:02:22;;;;;;;1.80;1.05;;;30.80;93.70;;;;;;4992327;28;20182;-44